sensor_id;sensor_type;location;lat;lon;timestamp;temperature;humidity
16076;DHT22;8142;48.242;11.644;2022-12-11T00:01:09;1.20;99.90
16076;DHT22;8142;48.242;11.644;2022-12-11T00:03:35;1.20;99.90
16076;DHT22;8142;48.242;11.644;2022-12-11T00:06:07;1.20;99.90
16076;DHT22;8142;48.242;11.644;2022-12-11T00:08:33;1.20;99.90
16076;DHT22;8142;48.242;11.644;2022-12-11T00:10:59;1.20;99.90
16076;DHT22;8142;48.242;11.644;2022-12-11T00:13:25;1.20;99.90
16076;DHT22;8142;48.242;11.644;2022-12-11T00:15:51;1.20;99.90
16076;DHT22;8142;48.242;11.644;2022-12-11T00:18:17;1.20;99.90
16076;DHT22;8142;48.242;11.644;2022-12-11T00:20:43;1.20;99.90
16076;DHT22;8142;48.242;11.644;2022-12-11T00:23:09;1.20;99.90
16076;DHT22;8142;48.242;11.644;2022-12-11T00:25:45;1.20;99.90
16076;DHT22;8142;48.242;11.644;2022-12-11T00:28:13;1.20;99.90
16076;DHT22;8142;48.242;11.644;2022-12-11T00:30:40;1.10;99.90
16076;DHT22;8142;48.242;11.644;2022-12-11T00:33:07;1.10;99.90
16076;DHT22;8142;48.242;11.644;2022-12-11T00:35:37;1.10;99.90
16076;DHT22;8142;48.242;11.644;2022-12-11T00:38:06;1.20;99.90
16076;DHT22;8142;48.242;11.644;2022-12-11T00:40:36;1.20;99.90
16076;DHT22;8142;48.242;11.644;2022-12-11T00:43:02;1.20;99.90
16076;DHT22;8142;48.242;11.644;2022-12-11T00:45:28;1.10;99.90
16076;DHT22;8142;48.242;11.644;2022-12-11T00:47:54;1.10;99.90
16076;DHT22;8142;48.242;11.644;2022-12-11T00:50:20;1.10;99.90
16076;DHT22;8142;48.242;11.644;2022-12-11T00:52:46;1.10;99.90
16076;DHT22;8142;48.242;11.644;2022-12-11T00:55:12;1.10;99.90
16076;DHT22;8142;48.242;11.644;2022-12-11T00:57:38;1.10;99.90
16076;DHT22;8142;48.242;11.644;2022-12-11T01:00:04;1.10;99.90
16076;DHT22;8142;48.242;11.644;2022-12-11T01:02:34;1.10;99.90
16076;DHT22;8142;48.242;11.644;2022-12-11T01:05:00;1.10;99.90
16076;DHT22;8142;48.242;11.644;2022-12-11T01:07:25;1.10;99.90
16076;DHT22;8142;48.242;11.644;2022-12-11T01:09:51;1.10;99.90
16076;DHT22;8142;48.242;11.644;2022-12-11T01:12:36;1.10;99.90
16076;DHT22;8142;48.242;11.644;2022-12-11T01:15:02;1.10;99.90
16076;DHT22;8142;48.242;11.644;2022-12-11T01:17:28;1.10;99.90
16076;DHT22;8142;48.242;11.644;2022-12-11T01:19:54;1.10;99.90
16076;DHT22;8142;48.242;11.644;2022-12-11T01:22:20;1.10;99.90
16076;DHT22;8142;48.242;11.644;2022-12-11T01:24:46;1.10;99.90
16076;DHT22;8142;48.242;11.644;2022-12-11T01:27:12;1.20;99.90
16076;DHT22;8142;48.242;11.644;2022-12-11T01:29:38;1.20;99.90
16076;DHT22;8142;48.242;11.644;2022-12-11T01:32:03;1.20;99.90
16076;DHT22;8142;48.242;11.644;2022-12-11T01:34:30;1.30;99.90
16076;DHT22;8142;48.242;11.644;2022-12-11T01:36:56;1.30;99.90
16076;DHT22;8142;48.242;11.644;2022-12-11T01:39:22;1.40;99.90
16076;DHT22;8142;48.242;11.644;2022-12-11T01:41:48;1.40;99.90
16076;DHT22;8142;48.242;11.644;2022-12-11T01:46:40;1.50;99.90
16076;DHT22;8142;48.242;11.644;2022-12-11T01:49:10;1.60;99.90
16076;DHT22;8142;48.242;11.644;2022-12-11T01:51:48;1.60;99.90
16076;DHT22;8142;48.242;11.644;2022-12-11T01:54:16;1.60;99.90
16076;DHT22;8142;48.242;11.644;2022-12-11T01:56:44;1.60;99.90
16076;DHT22;8142;48.242;11.644;2022-12-11T01:59:12;1.60;99.90
16076;DHT22;8142;48.242;11.644;2022-12-11T02:01:44;1.60;99.90
16076;DHT22;8142;48.242;11.644;2022-12-11T02:04:11;1.50;99.90
16076;DHT22;8142;48.242;11.644;2022-12-11T02:06:41;1.50;99.90
16076;DHT22;8142;48.242;11.644;2022-12-11T02:09:13;1.50;99.90
16076;DHT22;8142;48.242;11.644;2022-12-11T02:14:38;1.50;99.90
16076;DHT22;8142;48.242;11.644;2022-12-11T02:25:53;1.60;99.90
16076;DHT22;8142;48.242;11.644;2022-12-11T02:36:33;1.50;99.90
16076;DHT22;8142;48.242;11.644;2022-12-11T02:39:01;1.50;99.90
16076;DHT22;8142;48.242;11.644;2022-12-11T02:41:28;1.50;99.90
16076;DHT22;8142;48.242;11.644;2022-12-11T02:43:56;1.50;99.90
16076;DHT22;8142;48.242;11.644;2022-12-11T02:46:24;1.50;99.90
16076;DHT22;8142;48.242;11.644;2022-12-11T02:48:50;1.50;99.90
16076;DHT22;8142;48.242;11.644;2022-12-11T02:51:23;1.50;99.90
16076;DHT22;8142;48.242;11.644;2022-12-11T02:53:52;1.60;99.90
16076;DHT22;8142;48.242;11.644;2022-12-11T02:56:25;1.60;99.90
16076;DHT22;8142;48.242;11.644;2022-12-11T02:58:59;1.60;99.90
16076;DHT22;8142;48.242;11.644;2022-12-11T03:01:26;1.60;99.90
16076;DHT22;8142;48.242;11.644;2022-12-11T03:03:53;1.60;99.90
16076;DHT22;8142;48.242;11.644;2022-12-11T03:06:22;1.60;99.90
16076;DHT22;8142;48.242;11.644;2022-12-11T03:08:49;1.60;99.90
16076;DHT22;8142;48.242;11.644;2022-12-11T03:11:16;1.60;99.90
16076;DHT22;8142;48.242;11.644;2022-12-11T03:13:43;1.60;99.90
16076;DHT22;8142;48.242;11.644;2022-12-11T03:16:35;1.60;99.90
16076;DHT22;8142;48.242;11.644;2022-12-11T03:19:10;1.50;99.90
16076;DHT22;8142;48.242;11.644;2022-12-11T03:24:17;1.50;99.90
16076;DHT22;8142;48.242;11.644;2022-12-11T03:26:56;1.50;99.90
16076;DHT22;8142;48.242;11.644;2022-12-11T03:29:30;1.50;99.90
16076;DHT22;8142;48.242;11.644;2022-12-11T03:32:12;1.50;99.90
16076;DHT22;8142;48.242;11.644;2022-12-11T03:35:13;1.50;99.90
16076;DHT22;8142;48.242;11.644;2022-12-11T03:37:41;1.50;99.90
16076;DHT22;8142;48.242;11.644;2022-12-11T03:40:15;1.50;99.90
16076;DHT22;8142;48.242;11.644;2022-12-11T03:42:44;1.50;99.90
16076;DHT22;8142;48.242;11.644;2022-12-11T03:45:12;1.50;99.90
16076;DHT22;8142;48.242;11.644;2022-12-11T03:47:40;1.50;99.90
16076;DHT22;8142;48.242;11.644;2022-12-11T03:50:09;1.50;99.90
16076;DHT22;8142;48.242;11.644;2022-12-11T03:52:42;1.50;99.90
16076;DHT22;8142;48.242;11.644;2022-12-11T03:55:10;1.40;99.90
16076;DHT22;8142;48.242;11.644;2022-12-11T03:57:37;1.40;99.90
16076;DHT22;8142;48.242;11.644;2022-12-11T04:00:06;1.60;99.90
16076;DHT22;8142;48.242;11.644;2022-12-11T04:02:32;1.40;99.90
16076;DHT22;8142;48.242;11.644;2022-12-11T04:04:58;1.40;99.90
16076;DHT22;8142;48.242;11.644;2022-12-11T04:07:24;1.40;99.90
16076;DHT22;8142;48.242;11.644;2022-12-11T04:09:49;1.40;99.90
16076;DHT22;8142;48.242;11.644;2022-12-11T04:12:15;1.40;99.90
16076;DHT22;8142;48.242;11.644;2022-12-11T04:14:41;1.40;99.90
16076;DHT22;8142;48.242;11.644;2022-12-11T04:17:27;1.50;99.90
16076;DHT22;8142;48.242;11.644;2022-12-11T04:20:11;1.50;99.90
16076;DHT22;8142;48.242;11.644;2022-12-11T04:22:56;1.50;99.90
16076;DHT22;8142;48.242;11.644;2022-12-11T04:25:41;1.50;99.90
16076;DHT22;8142;48.242;11.644;2022-12-11T04:28:07;1.50;99.90
16076;DHT22;8142;48.242;11.644;2022-12-11T04:30:33;1.50;99.90
16076;DHT22;8142;48.242;11.644;2022-12-11T04:32:58;1.40;99.90
16076;DHT22;8142;48.242;11.644;2022-12-11T04:35:24;1.40;99.90
16076;DHT22;8142;48.242;11.644;2022-12-11T04:37:51;1.50;99.90
16076;DHT22;8142;48.242;11.644;2022-12-11T04:40:18;1.40;99.90
16076;DHT22;8142;48.242;11.644;2022-12-11T04:42:44;1.40;99.90
16076;DHT22;8142;48.242;11.644;2022-12-11T04:45:11;1.40;99.90
16076;DHT22;8142;48.242;11.644;2022-12-11T04:47:38;1.40;99.90
16076;DHT22;8142;48.242;11.644;2022-12-11T04:50:06;1.40;99.90
16076;DHT22;8142;48.242;11.644;2022-12-11T04:52:32;1.40;99.90
16076;DHT22;8142;48.242;11.644;2022-12-11T04:54:58;1.40;99.90
16076;DHT22;8142;48.242;11.644;2022-12-11T04:57:24;1.40;99.90
16076;DHT22;8142;48.242;11.644;2022-12-11T04:59:50;1.40;99.90
16076;DHT22;8142;48.242;11.644;2022-12-11T05:02:16;1.40;99.90
16076;DHT22;8142;48.242;11.644;2022-12-11T05:04:42;1.30;99.90
16076;DHT22;8142;48.242;11.644;2022-12-11T05:07:08;1.10;99.90
16076;DHT22;8142;48.242;11.644;2022-12-11T05:09:34;1.00;99.90
16076;DHT22;8142;48.242;11.644;2022-12-11T05:12:01;0.70;99.90
16076;DHT22;8142;48.242;11.644;2022-12-11T05:14:27;0.50;99.90
16076;DHT22;8142;48.242;11.644;2022-12-11T05:16:57;0.30;99.90
16076;DHT22;8142;48.242;11.644;2022-12-11T05:19:24;0.10;99.90
16076;DHT22;8142;48.242;11.644;2022-12-11T05:21:50;-0.10;99.90
16076;DHT22;8142;48.242;11.644;2022-12-11T05:24:15;-0.20;99.90
16076;DHT22;8142;48.242;11.644;2022-12-11T05:26:41;-0.30;99.90
16076;DHT22;8142;48.242;11.644;2022-12-11T05:29:07;-0.40;99.90
16076;DHT22;8142;48.242;11.644;2022-12-11T05:31:33;-0.50;99.90
16076;DHT22;8142;48.242;11.644;2022-12-11T05:33:59;-0.60;99.90
16076;DHT22;8142;48.242;11.644;2022-12-11T05:36:27;-0.70;99.90
16076;DHT22;8142;48.242;11.644;2022-12-11T05:38:54;-0.70;99.90
16076;DHT22;8142;48.242;11.644;2022-12-11T05:41:22;-0.80;99.90
16076;DHT22;8142;48.242;11.644;2022-12-11T05:43:48;-0.80;99.90
16076;DHT22;8142;48.242;11.644;2022-12-11T05:46:20;-0.80;99.90
16076;DHT22;8142;48.242;11.644;2022-12-11T05:48:48;-0.90;99.90
16076;DHT22;8142;48.242;11.644;2022-12-11T05:51:15;-0.90;99.90
16076;DHT22;8142;48.242;11.644;2022-12-11T05:53:43;-1.00;99.90
16076;DHT22;8142;48.242;11.644;2022-12-11T05:56:12;-1.00;99.90
16076;DHT22;8142;48.242;11.644;2022-12-11T05:58:39;-1.00;99.90
16076;DHT22;8142;48.242;11.644;2022-12-11T06:01:20;-1.00;99.90
16076;DHT22;8142;48.242;11.644;2022-12-11T06:03:46;-1.10;99.90
16076;DHT22;8142;48.242;11.644;2022-12-11T06:06:13;-1.10;99.90
16076;DHT22;8142;48.242;11.644;2022-12-11T06:08:39;-1.00;99.90
16076;DHT22;8142;48.242;11.644;2022-12-11T06:11:05;-1.10;99.90
16076;DHT22;8142;48.242;11.644;2022-12-11T06:13:31;-1.10;99.90
16076;DHT22;8142;48.242;11.644;2022-12-11T06:16:02;-1.10;99.90
16076;DHT22;8142;48.242;11.644;2022-12-11T06:18:28;-1.10;99.90
16076;DHT22;8142;48.242;11.644;2022-12-11T06:20:55;-1.10;99.90
16076;DHT22;8142;48.242;11.644;2022-12-11T06:23:20;-1.10;99.90
16076;DHT22;8142;48.242;11.644;2022-12-11T06:25:46;-1.10;99.90
16076;DHT22;8142;48.242;11.644;2022-12-11T06:28:12;-1.10;99.90
16076;DHT22;8142;48.242;11.644;2022-12-11T06:30:38;-1.10;99.90
16076;DHT22;8142;48.242;11.644;2022-12-11T06:33:04;-1.20;99.90
16076;DHT22;8142;48.242;11.644;2022-12-11T06:35:30;-1.20;99.90
16076;DHT22;8142;48.242;11.644;2022-12-11T06:37:56;-1.20;99.90
16076;DHT22;8142;48.242;11.644;2022-12-11T06:40:21;-1.20;99.90
16076;DHT22;8142;48.242;11.644;2022-12-11T06:42:47;-1.20;99.90
16076;DHT22;8142;48.242;11.644;2022-12-11T06:45:13;-1.20;99.90
16076;DHT22;8142;48.242;11.644;2022-12-11T06:47:39;-1.20;99.90
16076;DHT22;8142;48.242;11.644;2022-12-11T06:50:05;-1.20;99.90
16076;DHT22;8142;48.242;11.644;2022-12-11T06:52:31;-1.20;99.90
16076;DHT22;8142;48.242;11.644;2022-12-11T06:54:57;-1.20;99.90
16076;DHT22;8142;48.242;11.644;2022-12-11T06:57:23;-1.10;99.90
16076;DHT22;8142;48.242;11.644;2022-12-11T06:59:49;-1.00;99.90
16076;DHT22;8142;48.242;11.644;2022-12-11T07:02:16;-0.90;99.90
16076;DHT22;8142;48.242;11.644;2022-12-11T07:04:43;-0.70;99.90
16076;DHT22;8142;48.242;11.644;2022-12-11T07:07:09;-0.60;99.90
16076;DHT22;8142;48.242;11.644;2022-12-11T07:09:37;-0.40;99.90
16076;DHT22;8142;48.242;11.644;2022-12-11T07:12:04;-0.30;99.90
16076;DHT22;8142;48.242;11.644;2022-12-11T07:14:30;-0.20;99.90
16076;DHT22;8142;48.242;11.644;2022-12-11T07:16:56;0.00;99.90
16076;DHT22;8142;48.242;11.644;2022-12-11T07:19:23;0.10;99.90
16076;DHT22;8142;48.242;11.644;2022-12-11T07:21:49;0.20;99.90
16076;DHT22;8142;48.242;11.644;2022-12-11T07:24:15;0.30;99.90
16076;DHT22;8142;48.242;11.644;2022-12-11T07:26:41;0.30;99.90
16076;DHT22;8142;48.242;11.644;2022-12-11T07:29:07;0.40;99.90
16076;DHT22;8142;48.242;11.644;2022-12-11T07:31:33;0.50;99.90
16076;DHT22;8142;48.242;11.644;2022-12-11T07:34:02;0.60;99.90
16076;DHT22;8142;48.242;11.644;2022-12-11T07:36:29;0.60;99.90
16076;DHT22;8142;48.242;11.644;2022-12-11T07:38:55;0.70;99.90
16076;DHT22;8142;48.242;11.644;2022-12-11T07:41:22;0.70;99.90
16076;DHT22;8142;48.242;11.644;2022-12-11T07:43:48;0.70;99.90
16076;DHT22;8142;48.242;11.644;2022-12-11T07:46:19;0.80;99.90
16076;DHT22;8142;48.242;11.644;2022-12-11T07:48:47;0.90;99.90
16076;DHT22;8142;48.242;11.644;2022-12-11T07:51:21;0.90;99.90
16076;DHT22;8142;48.242;11.644;2022-12-11T07:53:51;1.00;99.90
16076;DHT22;8142;48.242;11.644;2022-12-11T07:56:18;1.00;99.90
16076;DHT22;8142;48.242;11.644;2022-12-11T07:58:45;1.10;99.90
16076;DHT22;8142;48.242;11.644;2022-12-11T08:01:16;1.10;99.90
16076;DHT22;8142;48.242;11.644;2022-12-11T08:03:42;1.20;99.90
16076;DHT22;8142;48.242;11.644;2022-12-11T08:06:09;1.20;99.90
16076;DHT22;8142;48.242;11.644;2022-12-11T08:08:35;1.20;99.90
16076;DHT22;8142;48.242;11.644;2022-12-11T08:11:03;1.30;99.90
16076;DHT22;8142;48.242;11.644;2022-12-11T08:13:29;1.30;99.90
16076;DHT22;8142;48.242;11.644;2022-12-11T08:15:54;1.30;99.90
16076;DHT22;8142;48.242;11.644;2022-12-11T08:18:20;1.40;99.90
16076;DHT22;8142;48.242;11.644;2022-12-11T08:20:46;1.40;99.90
16076;DHT22;8142;48.242;11.644;2022-12-11T08:23:12;1.40;99.90
16076;DHT22;8142;48.242;11.644;2022-12-11T08:25:38;1.40;99.90
16076;DHT22;8142;48.242;11.644;2022-12-11T08:28:04;1.40;99.90
16076;DHT22;8142;48.242;11.644;2022-12-11T08:30:30;1.50;99.90
16076;DHT22;8142;48.242;11.644;2022-12-11T08:32:57;1.50;99.90
16076;DHT22;8142;48.242;11.644;2022-12-11T08:35:24;1.50;99.90
16076;DHT22;8142;48.242;11.644;2022-12-11T08:37:50;1.50;99.90
16076;DHT22;8142;48.242;11.644;2022-12-11T08:40:16;1.50;99.90
16076;DHT22;8142;48.242;11.644;2022-12-11T08:42:42;1.50;99.90
16076;DHT22;8142;48.242;11.644;2022-12-11T08:45:08;1.50;99.90
16076;DHT22;8142;48.242;11.644;2022-12-11T08:47:35;1.40;99.90
16076;DHT22;8142;48.242;11.644;2022-12-11T08:50:01;1.40;99.90
16076;DHT22;8142;48.242;11.644;2022-12-11T08:52:27;1.40;99.90
16076;DHT22;8142;48.242;11.644;2022-12-11T08:54:53;1.40;99.90
16076;DHT22;8142;48.242;11.644;2022-12-11T08:57:18;1.40;99.90
16076;DHT22;8142;48.242;11.644;2022-12-11T08:59:44;1.50;99.90
16076;DHT22;8142;48.242;11.644;2022-12-11T09:02:10;1.50;99.90
16076;DHT22;8142;48.242;11.644;2022-12-11T09:04:37;1.50;99.90
16076;DHT22;8142;48.242;11.644;2022-12-11T09:07:03;1.50;99.90
16076;DHT22;8142;48.242;11.644;2022-12-11T09:09:29;1.50;99.90
16076;DHT22;8142;48.242;11.644;2022-12-11T09:11:55;1.50;99.90
16076;DHT22;8142;48.242;11.644;2022-12-11T09:14:21;1.50;99.90
16076;DHT22;8142;48.242;11.644;2022-12-11T09:16:47;1.50;99.90
16076;DHT22;8142;48.242;11.644;2022-12-11T09:19:13;1.50;99.90
16076;DHT22;8142;48.242;11.644;2022-12-11T09:21:40;1.50;99.90
16076;DHT22;8142;48.242;11.644;2022-12-11T09:24:08;1.50;99.90
16076;DHT22;8142;48.242;11.644;2022-12-11T09:26:34;1.50;99.90
16076;DHT22;8142;48.242;11.644;2022-12-11T09:29:02;1.50;99.90
16076;DHT22;8142;48.242;11.644;2022-12-11T09:31:32;1.50;99.90
16076;DHT22;8142;48.242;11.644;2022-12-11T09:34:00;1.50;99.90
16076;DHT22;8142;48.242;11.644;2022-12-11T09:36:27;1.50;99.90
16076;DHT22;8142;48.242;11.644;2022-12-11T09:38:53;1.40;99.90
16076;DHT22;8142;48.242;11.644;2022-12-11T09:44:34;1.30;99.90
16076;DHT22;8142;48.242;11.644;2022-12-11T09:49:50;0.90;99.90
16076;DHT22;8142;48.242;11.644;2022-12-11T09:52:22;0.70;99.90
16076;DHT22;8142;48.242;11.644;2022-12-11T09:55:01;0.60;99.90
16076;DHT22;8142;48.242;11.644;2022-12-11T10:00:13;0.30;99.90
16076;DHT22;8142;48.242;11.644;2022-12-11T10:05:44;0.10;99.90
16076;DHT22;8142;48.242;11.644;2022-12-11T10:19:30;-0.10;99.90
16076;DHT22;8142;48.242;11.644;2022-12-11T10:21:58;-0.10;99.90
16076;DHT22;8142;48.242;11.644;2022-12-11T10:24:36;-0.20;99.90
16076;DHT22;8142;48.242;11.644;2022-12-11T10:27:16;-0.10;99.90
16076;DHT22;8142;48.242;11.644;2022-12-11T10:29:45;-0.20;99.90
16076;DHT22;8142;48.242;11.644;2022-12-11T10:32:21;-0.20;99.90
16076;DHT22;8142;48.242;11.644;2022-12-11T10:34:57;-0.20;99.90
16076;DHT22;8142;48.242;11.644;2022-12-11T10:37:23;-0.20;99.90
16076;DHT22;8142;48.242;11.644;2022-12-11T10:39:50;-0.20;99.90
16076;DHT22;8142;48.242;11.644;2022-12-11T10:42:19;-0.20;99.90
16076;DHT22;8142;48.242;11.644;2022-12-11T10:45:00;-0.20;99.90
16076;DHT22;8142;48.242;11.644;2022-12-11T10:47:26;-0.10;99.90
16076;DHT22;8142;48.242;11.644;2022-12-11T10:49:58;-0.20;99.90
16076;DHT22;8142;48.242;11.644;2022-12-11T10:52:25;-0.10;99.90
16076;DHT22;8142;48.242;11.644;2022-12-11T10:55:02;-0.20;99.90
16076;DHT22;8142;48.242;11.644;2022-12-11T10:57:36;-0.20;99.90
16076;DHT22;8142;48.242;11.644;2022-12-11T11:00:05;-0.30;99.90
16076;DHT22;8142;48.242;11.644;2022-12-11T11:02:35;-0.20;99.90
16076;DHT22;8142;48.242;11.644;2022-12-11T11:05:14;-0.20;99.90
16076;DHT22;8142;48.242;11.644;2022-12-11T11:07:41;-0.20;99.90
16076;DHT22;8142;48.242;11.644;2022-12-11T11:10:17;-0.20;99.90
16076;DHT22;8142;48.242;11.644;2022-12-11T11:12:46;-0.20;99.90
16076;DHT22;8142;48.242;11.644;2022-12-11T11:15:19;-0.20;99.90
16076;DHT22;8142;48.242;11.644;2022-12-11T11:17:50;-0.10;99.90
16076;DHT22;8142;48.242;11.644;2022-12-11T11:20:22;0.00;99.90
16076;DHT22;8142;48.242;11.644;2022-12-11T11:22:51;0.10;99.90
16076;DHT22;8142;48.242;11.644;2022-12-11T11:25:23;0.20;99.90
16076;DHT22;8142;48.242;11.644;2022-12-11T11:27:59;0.40;99.90
16076;DHT22;8142;48.242;11.644;2022-12-11T11:30:34;0.30;99.90
16076;DHT22;8142;48.242;11.644;2022-12-11T11:33:16;0.40;99.90
16076;DHT22;8142;48.242;11.644;2022-12-11T11:35:53;0.50;99.90
16076;DHT22;8142;48.242;11.644;2022-12-11T11:41:24;0.70;99.90
16076;DHT22;8142;48.242;11.644;2022-12-11T11:43:58;0.70;99.90
16076;DHT22;8142;48.242;11.644;2022-12-11T11:46:40;0.80;99.90
16076;DHT22;8142;48.242;11.644;2022-12-11T11:57:16;1.10;99.90
16076;DHT22;8142;48.242;11.644;2022-12-11T11:59:51;1.10;99.90
16076;DHT22;8142;48.242;11.644;2022-12-11T12:02:19;1.20;99.90
16076;DHT22;8142;48.242;11.644;2022-12-11T12:04:46;1.20;99.90
16076;DHT22;8142;48.242;11.644;2022-12-11T12:10:28;1.30;99.90
16076;DHT22;8142;48.242;11.644;2022-12-11T12:13:06;1.40;99.90
16076;DHT22;8142;48.242;11.644;2022-12-11T12:18:21;1.40;99.90
16076;DHT22;8142;48.242;11.644;2022-12-11T12:26:34;1.60;99.90
16076;DHT22;8142;48.242;11.644;2022-12-11T12:29:23;1.60;99.90
16076;DHT22;8142;48.242;11.644;2022-12-11T12:34:58;1.70;99.90
16076;DHT22;8142;48.242;11.644;2022-12-11T12:47:43;1.80;99.90
16076;DHT22;8142;48.242;11.644;2022-12-11T12:50:12;1.80;99.90
16076;DHT22;8142;48.242;11.644;2022-12-11T12:52:39;1.80;99.90
16076;DHT22;8142;48.242;11.644;2022-12-11T12:57:55;1.80;99.90
16076;DHT22;8142;48.242;11.644;2022-12-11T13:02:54;1.90;99.90
16076;DHT22;8142;48.242;11.644;2022-12-11T13:05:33;1.90;99.90
16076;DHT22;8142;48.242;11.644;2022-12-11T13:08:02;1.90;99.90
16076;DHT22;8142;48.242;11.644;2022-12-11T13:10:37;1.90;99.90
16076;DHT22;8142;48.242;11.644;2022-12-11T13:13:05;1.90;99.90
16076;DHT22;8142;48.242;11.644;2022-12-11T13:15:38;1.90;99.90
16076;DHT22;8142;48.242;11.644;2022-12-11T13:18:34;1.90;99.90
16076;DHT22;8142;48.242;11.644;2022-12-11T13:21:21;2.00;99.90
16076;DHT22;8142;48.242;11.644;2022-12-11T13:23:48;2.00;99.90
16076;DHT22;8142;48.242;11.644;2022-12-11T13:26:29;1.90;99.90
16076;DHT22;8142;48.242;11.644;2022-12-11T13:28:56;1.90;99.90
16076;DHT22;8142;48.242;11.644;2022-12-11T13:31:38;1.90;99.90
16076;DHT22;8142;48.242;11.644;2022-12-11T13:34:17;1.90;99.90
16076;DHT22;8142;48.242;11.644;2022-12-11T13:36:48;1.90;99.90
16076;DHT22;8142;48.242;11.644;2022-12-11T13:39:22;1.90;99.90
16076;DHT22;8142;48.242;11.644;2022-12-11T13:41:54;1.80;99.90
16076;DHT22;8142;48.242;11.644;2022-12-11T13:44:26;1.70;99.90
16076;DHT22;8142;48.242;11.644;2022-12-11T13:46:56;1.70;99.90
16076;DHT22;8142;48.242;11.644;2022-12-11T13:49:25;1.60;99.90
16076;DHT22;8142;48.242;11.644;2022-12-11T13:51:58;1.50;99.90
16076;DHT22;8142;48.242;11.644;2022-12-11T13:54:26;1.40;99.90
16076;DHT22;8142;48.242;11.644;2022-12-11T13:56:54;1.40;99.90
16076;DHT22;8142;48.242;11.644;2022-12-11T13:59:29;1.30;99.90
16076;DHT22;8142;48.242;11.644;2022-12-11T14:01:59;1.30;99.90
16076;DHT22;8142;48.242;11.644;2022-12-11T14:04:26;1.20;99.90
16076;DHT22;8142;48.242;11.644;2022-12-11T14:06:54;1.00;99.90
16076;DHT22;8142;48.242;11.644;2022-12-11T14:09:22;0.80;99.90
16076;DHT22;8142;48.242;11.644;2022-12-11T14:11:49;0.60;99.90
16076;DHT22;8142;48.242;11.644;2022-12-11T14:14:22;0.50;99.90
16076;DHT22;8142;48.242;11.644;2022-12-11T14:16:51;0.40;99.90
16076;DHT22;8142;48.242;11.644;2022-12-11T14:19:19;0.30;99.90
16076;DHT22;8142;48.242;11.644;2022-12-11T14:22:00;0.20;99.90
16076;DHT22;8142;48.242;11.644;2022-12-11T14:24:26;0.10;99.90
16076;DHT22;8142;48.242;11.644;2022-12-11T14:26:53;0.00;99.90
16076;DHT22;8142;48.242;11.644;2022-12-11T14:29:24;-0.10;99.90
16076;DHT22;8142;48.242;11.644;2022-12-11T14:31:51;-0.10;99.90
16076;DHT22;8142;48.242;11.644;2022-12-11T14:34:37;-0.20;99.90
16076;DHT22;8142;48.242;11.644;2022-12-11T14:37:06;-0.30;99.90
16076;DHT22;8142;48.242;11.644;2022-12-11T14:39:56;-0.30;99.90
16076;DHT22;8142;48.242;11.644;2022-12-11T14:42:42;-0.40;99.90
16076;DHT22;8142;48.242;11.644;2022-12-11T14:45:37;-0.40;99.90
16076;DHT22;8142;48.242;11.644;2022-12-11T14:48:17;-0.40;99.90
16076;DHT22;8142;48.242;11.644;2022-12-11T14:50:50;-0.50;99.90
16076;DHT22;8142;48.242;11.644;2022-12-11T14:53:21;-0.50;99.90
16076;DHT22;8142;48.242;11.644;2022-12-11T14:55:49;-0.50;99.90
16076;DHT22;8142;48.242;11.644;2022-12-11T14:58:22;-0.50;99.90
16076;DHT22;8142;48.242;11.644;2022-12-11T15:00:57;-0.50;99.90
16076;DHT22;8142;48.242;11.644;2022-12-11T15:03:24;-0.60;99.90
16076;DHT22;8142;48.242;11.644;2022-12-11T15:05:57;-0.60;99.90
16076;DHT22;8142;48.242;11.644;2022-12-11T15:08:27;-0.60;99.90
16076;DHT22;8142;48.242;11.644;2022-12-11T15:11:03;-0.60;99.90
16076;DHT22;8142;48.242;11.644;2022-12-11T15:13:32;-0.70;99.90
16076;DHT22;8142;48.242;11.644;2022-12-11T15:15:59;-0.70;99.90
16076;DHT22;8142;48.242;11.644;2022-12-11T15:18:26;-0.70;99.90
16076;DHT22;8142;48.242;11.644;2022-12-11T15:20:59;-0.70;99.90
16076;DHT22;8142;48.242;11.644;2022-12-11T15:23:27;-0.70;99.90
16076;DHT22;8142;48.242;11.644;2022-12-11T15:25:55;-0.70;99.90
16076;DHT22;8142;48.242;11.644;2022-12-11T15:28:40;-0.70;99.90
16076;DHT22;8142;48.242;11.644;2022-12-11T15:31:23;-0.80;99.90
16076;DHT22;8142;48.242;11.644;2022-12-11T15:33:49;-0.80;99.90
16076;DHT22;8142;48.242;11.644;2022-12-11T15:38:56;-0.80;99.90
16076;DHT22;8142;48.242;11.644;2022-12-11T15:41:23;-0.70;99.90
16076;DHT22;8142;48.242;11.644;2022-12-11T15:43:53;-0.60;99.90
16076;DHT22;8142;48.242;11.644;2022-12-11T15:46:20;-0.50;99.90
16076;DHT22;8142;48.242;11.644;2022-12-11T15:48:49;-0.40;99.90
16076;DHT22;8142;48.242;11.644;2022-12-11T15:51:15;-0.30;99.90
16076;DHT22;8142;48.242;11.644;2022-12-11T15:53:41;-0.20;99.90
16076;DHT22;8142;48.242;11.644;2022-12-11T15:56:14;0.00;99.90
16076;DHT22;8142;48.242;11.644;2022-12-11T15:58:42;0.00;99.90
16076;DHT22;8142;48.242;11.644;2022-12-11T16:01:09;0.20;99.90
16076;DHT22;8142;48.242;11.644;2022-12-11T16:03:35;0.20;99.90
16076;DHT22;8142;48.242;11.644;2022-12-11T16:06:01;0.30;99.90
16076;DHT22;8142;48.242;11.644;2022-12-11T16:08:26;0.40;99.90
16076;DHT22;8142;48.242;11.644;2022-12-11T16:10:53;0.50;99.90
16076;DHT22;8142;48.242;11.644;2022-12-11T16:13:20;0.50;99.90
16076;DHT22;8142;48.242;11.644;2022-12-11T16:15:47;0.50;99.90
16076;DHT22;8142;48.242;11.644;2022-12-11T16:18:16;0.50;99.90
16076;DHT22;8142;48.242;11.644;2022-12-11T16:20:43;0.60;99.90
16076;DHT22;8142;48.242;11.644;2022-12-11T16:23:09;0.60;99.90
16076;DHT22;8142;48.242;11.644;2022-12-11T16:25:37;0.60;99.90
16076;DHT22;8142;48.242;11.644;2022-12-11T16:28:04;0.60;99.90
16076;DHT22;8142;48.242;11.644;2022-12-11T16:30:30;0.60;99.90
16076;DHT22;8142;48.242;11.644;2022-12-11T16:32:56;0.60;99.90
16076;DHT22;8142;48.242;11.644;2022-12-11T16:35:22;0.60;99.90
16076;DHT22;8142;48.242;11.644;2022-12-11T16:37:52;0.70;99.90
16076;DHT22;8142;48.242;11.644;2022-12-11T16:40:18;0.70;99.90
16076;DHT22;8142;48.242;11.644;2022-12-11T16:42:45;0.70;99.90
16076;DHT22;8142;48.242;11.644;2022-12-11T16:45:22;0.80;99.90
16076;DHT22;8142;48.242;11.644;2022-12-11T16:47:48;0.80;99.90
16076;DHT22;8142;48.242;11.644;2022-12-11T16:50:15;0.80;99.90
16076;DHT22;8142;48.242;11.644;2022-12-11T16:52:42;0.70;99.90
16076;DHT22;8142;48.242;11.644;2022-12-11T16:55:09;0.50;99.90
16076;DHT22;8142;48.242;11.644;2022-12-11T16:57:36;0.30;99.90
16076;DHT22;8142;48.242;11.644;2022-12-11T17:00:07;0.10;99.90
16076;DHT22;8142;48.242;11.644;2022-12-11T17:02:35;-0.10;99.90
16076;DHT22;8142;48.242;11.644;2022-12-11T17:05:01;-0.30;99.90
16076;DHT22;8142;48.242;11.644;2022-12-11T17:07:27;-0.40;99.90
16076;DHT22;8142;48.242;11.644;2022-12-11T17:09:52;-0.50;99.90
16076;DHT22;8142;48.242;11.644;2022-12-11T17:12:18;-0.60;99.90
16076;DHT22;8142;48.242;11.644;2022-12-11T17:14:50;-0.60;99.90
16076;DHT22;8142;48.242;11.644;2022-12-11T17:17:16;-0.80;99.90
16076;DHT22;8142;48.242;11.644;2022-12-11T17:19:42;-0.80;99.90
16076;DHT22;8142;48.242;11.644;2022-12-11T17:22:08;-0.80;99.90
16076;DHT22;8142;48.242;11.644;2022-12-11T17:24:33;-0.90;99.90
16076;DHT22;8142;48.242;11.644;2022-12-11T17:26:59;-0.90;99.90